Accueil
METAR-TAF:

METAR-TAF

Aéroports :

Wahpeton, Dakota du Nord, États-Unis

latitude: 46-14-39N, longitude: 096-36-26W, altitude: 295 m

Observation

Le bulletin a été fait il y a 1 heure et 21 minutes, à 14:55 UTC
Vent 6 kt de sud/sud-ouest
Température -8°C
Humidité 79%
Pression 1022 hPa
Visibilité: 16.1 km

METAR: KBWP 141455Z AUTO 20006KT 10SM M08/M11 A3019 RMK AO1

Heure: 10:16 (16:16 UTC)


TAF: absent

Observations et prévisions météorologiques de plus de 4000 aéroports (messages METAR et TAF).

Les stations disponibles sont représentées par des disques jaunes et rouges sur la carte.

Passer la souris dessus pour voir le nom de la station.

Cliquer dessus pour voir les observations et prévisions météorologiques.

Pour changer de carte: cliquez sur les boutons verts avec une croix noire pour zoomer, sur le bouton vert avec un tiret pour effectuer un zoom arrière, ou sur les flèches vertes pour les cartes adjacentes.


METAR-TAF: